Time;durP1;ratioP1;P1;durP2;ratioP2;P2;SDS_P1;SDS_P2;PMS_P1;PMS_P2;Temp;Humidity;BMP_temperature;BMP_pressure;BME280_temperature;BME280_humidity;BME280_pressure;Samples;Min_cycle;Max_cycle;Signal;HPM_P1;HPM_P2
2023/10/22 00:01:16;;;;;;;31.00;13.90;;;;;;;14.53;68.51;100594.37;107614;1253;107400;-63
2023/10/22 00:03:57;;;;;;;34.00;14.30;;;;;;;14.50;68.89;100593.17;107575;1252;97713;-62
2023/10/22 00:06:26;;;;;;;44.20;16.20;;;;;;;14.47;69.04;100587.91;107619;1255;97695;-61
2023/10/22 00:08:55;;;;;;;44.60;14.20;;;;;;;14.43;68.77;100591.30;107595;1253;110998;-61
2023/10/22 00:11:23;;;;;;;33.50;12.60;;;;;;;14.38;68.81;100596.05;107567;1254;110047;-62
2023/10/22 00:13:52;;;;;;;38.30;14.60;;;;;;;14.33;68.92;100597.88;107604;1251;108630;-61
2023/10/22 00:16:20;;;;;;;35.10;14.20;;;;;;;14.32;68.97;100599.12;107591;1251;97841;-61
2023/10/22 00:18:48;;;;;;;32.80;12.60;;;;;;;14.30;69.36;100596.23;107601;1251;97813;-62
2023/10/22 00:21:17;;;;;;;42.10;12.90;;;;;;;14.23;69.22;100592.23;107596;1251;111650;-63
2023/10/22 00:23:45;;;;;;;31.90;12.50;;;;;;;14.23;69.22;100588.08;107586;1254;110978;-61
2023/10/22 00:26:14;;;;;;;39.10;13.80;;;;;;;14.24;69.24;100589.59;107613;1253;107399;-62
2023/10/22 00:28:43;;;;;;;29.70;12.50;;;;;;;14.25;69.49;100588.69;107447;1253;97682;-65
2023/10/22 00:31:12;;;;;;;30.00;12.50;;;;;;;14.24;69.55;100584.05;107628;1253;97877;-61
2023/10/22 00:33:41;;;;;;;27.90;11.90;;;;;;;14.20;69.83;100583.02;107616;1253;111018;-63
2023/10/22 00:36:10;;;;;;;36.50;12.80;;;;;;;14.14;70.12;100573.90;107526;1251;109344;-62
2023/10/22 00:38:38;;;;;;;37.20;12.50;;;;;;;14.04;69.82;100573.54;107565;1254;107711;-62
2023/10/22 00:41:07;;;;;;;32.20;12.40;;;;;;;13.99;69.96;100572.51;107583;1252;97907;-61
2023/10/22 00:43:35;;;;;;;39.10;13.60;;;;;;;13.96;69.85;100578.06;107617;1253;98503;-62
2023/10/22 00:46:03;;;;;;;34.90;12.00;;;;;;;13.95;70.11;100576.34;107623;1253;111533;-62
2023/10/22 00:48:32;;;;;;;37.60;12.00;;;;;;;13.92;70.36;100583.77;107514;1253;109654;-61
2023/10/22 00:51:01;;;;;;;38.10;13.50;;;;;;;13.85;72.51;100613.09;107541;1256;108536;-61
2023/10/22 00:53:31;;;;;;;33.20;13.10;;;;;;;13.83;72.22;100604.83;107565;1253;97927;-62
2023/10/22 00:56:00;;;;;;;31.70;13.10;;;;;;;13.85;71.54;100595.33;107659;1254;97732;-61
2023/10/22 00:58:30;;;;;;;38.30;12.10;;;;;;;13.90;71.36;100594.85;107688;1253;110597;-62
2023/10/22 01:00:59;;;;;;;35.40;11.40;;;;;;;13.95;71.37;100596.38;107657;1251;109931;-63
2023/10/22 01:03:27;;;;;;;47.20;12.90;;;;;;;13.96;71.30;100599.85;107605;1251;107566;-61
2023/10/22 01:05:56;;;;;;;34.00;14.90;;;;;;;13.93;71.05;100598.14;107584;1253;98435;-62
2023/10/22 01:08:25;;;;;;;35.90;11.90;;;;;;;13.91;71.11;100596.38;107624;1251;98464;-62
2023/10/22 01:11:09;;;;;;;34.40;11.60;;;;;;;13.92;70.86;100594.66;107674;1251;110761;-63
2023/10/22 01:13:39;;;;;;;32.30;11.80;;;;;;;13.93;70.85;100602.00;107643;1251;109895;-62
2023/10/22 01:16:08;;;;;;;30.50;11.90;;;;;;;13.89;70.64;100601.85;107605;1256;108316;-62
2023/10/22 01:18:36;;;;;;;34.40;12.40;;;;;;;13.84;70.56;100599.69;107593;1252;97916;-62
2023/10/22 01:21:05;;;;;;;43.10;12.40;;;;;;;13.82;70.60;100600.59;107605;1253;98481;-63
2023/10/22 01:23:37;;;;;;;39.30;13.10;;;;;;;13.81;70.55;100601.02;107641;1253;111233;-64
2023/10/22 01:26:07;;;;;;;34.90;12.00;;;;;;;13.82;70.58;100597.55;107695;1253;108061;-62
2023/10/22 01:28:36;;;;;;;35.10;12.50;;;;;;;13.82;70.61;100589.95;107640;1253;106957;-63
2023/10/22 01:31:04;;;;;;;34.50;12.10;;;;;;;13.82;70.49;100590.28;107593;1253;97830;-62
2023/10/22 01:33:33;;;;;;;27.50;11.70;;;;;;;13.79;70.45;100584.27;107471;1252;98420;-62
2023/10/22 01:36:02;;;;;;;35.10;11.90;;;;;;;13.77;70.47;100589.21;107615;1251;111427;-62
2023/10/22 01:38:30;;;;;;;43.60;15.70;;;;;;;13.74;70.49;100588.60;107566;1251;109608;-62
2023/10/22 01:40:59;;;;;;;34.10;12.80;;;;;;;13.72;70.47;100585.58;107591;1253;107729;-63
2023/10/22 01:43:27;;;;;;;30.60;12.30;;;;;;;13.70;70.37;100581.98;107483;1251;97925;-62
2023/10/22 01:45:56;;;;;;;32.50;11.40;;;;;;;13.68;70.44;100581.09;107610;1251;98435;-62
2023/10/22 01:48:24;;;;;;;34.90;11.70;;;;;;;13.66;70.41;100583.64;107644;1253;111852;-63
2023/10/22 01:50:53;;;;;;;45.70;13.20;;;;;;;13.64;70.42;100583.91;107674;1253;108852;-60
2023/10/22 01:53:21;;;;;;;22.90;11.40;;;;;;;13.61;70.38;100581.70;107608;1251;108394;-64
2023/10/22 01:55:50;;;;;;;28.70;11.50;;;;;;;13.57;70.42;100580.09;107560;1251;97816;-61
2023/10/22 01:58:19;;;;;;;35.90;11.60;;;;;;;13.53;70.53;100579.09;107633;1256;97743;-61
2023/10/22 02:00:48;;;;;;;31.50;11.70;;;;;;;13.49;70.38;100574.48;107553;1253;112110;-61
2023/10/22 02:03:16;;;;;;;41.50;12.10;;;;;;;13.45;70.49;100566.58;107432;1253;109373;-63
2023/10/22 02:05:44;;;;;;;31.50;13.00;;;;;;;13.42;70.57;100562.14;107610;1253;108580;-62
2023/10/22 02:08:13;;;;;;;37.60;12.40;;;;;;;13.39;70.52;100557.21;107406;1256;97845;-61
2023/10/22 02:10:41;;;;;;;32.50;11.50;;;;;;;13.36;70.57;100557.61;107651;1251;98421;-63
2023/10/22 02:13:09;;;;;;;33.40;11.10;;;;;;;13.32;70.59;100546.11;107524;1251;112360;-64
2023/10/22 02:15:38;;;;;;;41.30;11.70;;;;;;;13.30;70.50;100541.98;107441;1251;109084;-62
2023/10/22 02:18:07;;;;;;;26.80;11.70;;;;;;;13.26;70.50;100541.48;107556;1251;107820;-62
2023/10/22 02:20:35;;;;;;;30.00;11.60;;;;;;;13.21;70.67;100542.14;107581;1253;97839;-63
2023/10/22 02:23:05;;;;;;;27.60;10.70;;;;;;;13.16;70.31;100553.46;107461;1251;98337;-63
2023/10/22 02:25:34;;;;;;;34.60;11.50;;;;;;;13.13;70.45;100564.42;107595;1253;112589;-64
2023/10/22 02:28:03;;;;;;;36.00;11.20;;;;;;;13.13;70.67;100568.57;107603;1253;109178;-62
2023/10/22 02:30:33;;;;;;;30.00;10.80;;;;;;;13.15;70.78;100559.00;107636;1251;107120;-62
2023/10/22 02:33:01;;;;;;;28.00;11.40;;;;;;;13.15;70.70;100563.16;107592;1251;97844;-61
2023/10/22 02:35:30;;;;;;;35.50;10.90;;;;;;;13.09;70.56;100557.75;107603;1251;97829;-62
2023/10/22 02:37:58;;;;;;;32.60;11.40;;;;;;;13.06;70.50;100561.58;107592;1251;111157;-61
2023/10/22 02:40:27;;;;;;;35.40;11.50;;;;;;;13.02;70.59;100562.66;107616;1253;110379;-61
2023/10/22 02:42:58;;;;;;;31.40;10.40;;;;;;;12.99;70.64;100566.52;107599;1251;108624;-62
2023/10/22 02:45:27;;;;;;;27.30;10.50;;;;;;;12.99;70.91;100567.29;107612;1253;97849;-62
2023/10/22 02:47:59;;;;;;;25.00;10.00;;;;;;;13.00;70.92;100563.74;107613;1251;97818;-63
2023/10/22 02:50:27;;;;;;;28.80;10.30;;;;;;;12.99;70.81;100563.86;107684;1251;110555;-61
2023/10/22 02:52:56;;;;;;;26.80;9.70;;;;;;;12.95;70.77;100566.45;107631;1251;109273;-62
2023/10/22 02:55:24;;;;;;;27.30;9.90;;;;;;;12.91;70.69;100566.11;107619;1251;108417;-63
2023/10/22 02:57:53;;;;;;;32.40;10.80;;;;;;;12.90;70.88;100570.23;107584;1251;97837;-62
2023/10/22 03:00:21;;;;;;;28.20;9.80;;;;;;;12.90;70.91;100569.48;107584;1253;97862;-62
2023/10/22 03:03:04;;;;;;;38.50;11.60;;;;;;;12.88;70.75;100578.34;107595;1256;111626;-62
2023/10/22 03:05:34;;;;;;;33.40;10.80;;;;;;;12.86;71.03;100577.96;107705;1253;109037;-61
2023/10/22 03:08:03;;;;;;;33.80;11.20;;;;;;;12.87;71.00;100573.40;107483;1251;107829;-63
2023/10/22 03:10:37;;;;;;;33.30;11.20;;;;;;;12.86;70.93;100565.73;107604;1253;98042;-60
2023/10/22 03:13:06;;;;;;;22.20;9.50;;;;;;;12.86;70.84;100568.13;107603;1251;97896;-62
2023/10/22 03:15:34;;;;;;;33.80;10.70;;;;;;;12.80;70.59;100572.91;107634;1251;113172;-61
2023/10/22 03:18:02;;;;;;;32.80;11.40;;;;;;;12.77;70.80;100567.12;107652;1253;110980;-62
2023/10/22 03:20:33;;;;;;;34.40;12.30;;;;;;;12.77;71.05;100558.16;107625;1251;107846;-61
2023/10/22 03:23:03;;;;;;;33.20;9.90;;;;;;;12.78;71.02;100558.82;107586;1253;97945;-62
2023/10/22 03:25:33;;;;;;;34.60;10.70;;;;;;;12.73;70.87;100557.33;107615;1253;98345;-61
2023/10/22 03:28:02;;;;;;;25.90;10.10;;;;;;;12.70;70.95;100554.07;107651;1251;111003;-62
2023/10/22 03:30:30;;;;;;;26.30;10.30;;;;;;;12.67;70.90;100548.54;107555;1251;111100;-62
2023/10/22 03:32:59;;;;;;;32.60;9.20;;;;;;;12.65;70.90;100551.09;107617;1251;109304;-61
2023/10/22 03:35:27;;;;;;;30.80;8.90;;;;;;;12.62;70.77;100554.14;107431;1252;97915;-62
2023/10/22 03:37:56;;;;;;;29.80;9.20;;;;;;;12.59;70.73;100556.40;107651;1251;97747;-61
2023/10/22 03:40:24;;;;;;;27.60;9.40;;;;;;;12.57;70.74;100556.77;107575;1251;112268;-61
2023/10/22 03:42:53;;;;;;;35.80;10.00;;;;;;;12.54;70.81;100551.13;107635;1254;109214;-61
2023/10/22 03:45:22;;;;;;;28.40;8.50;;;;;;;12.51;70.93;100553.69;107583;1252;107824;-62
2023/10/22 03:47:50;;;;;;;27.60;9.70;;;;;;;12.50;71.03;100555.83;107649;1251;97946;-62
2023/10/22 03:50:18;;;;;;;32.00;8.90;;;;;;;12.50;71.05;100551.88;107614;1253;97967;-63
2023/10/22 03:52:47;;;;;;;30.30;9.70;;;;;;;12.49;71.09;100552.11;107644;1251;111324;-61
2023/10/22 03:55:16;;;;;;;27.00;8.90;;;;;;;12.48;71.11;100547.91;107567;1251;110431;-61
2023/10/22 03:57:44;;;;;;;21.80;8.40;;;;;;;12.45;71.08;100543.33;107628;1251;107597;-63
2023/10/22 04:00:14;;;;;;;31.70;8.80;;;;;;;12.42;71.03;100548.34;107556;1253;97803;-62
2023/10/22 04:02:42;;;;;;;27.90;8.60;;;;;;;12.34;70.73;100544.80;107645;1251;98373;-61
2023/10/22 04:05:11;;;;;;;28.30;8.60;;;;;;;12.29;70.67;100547.63;107630;1253;112321;-62
2023/10/22 04:07:39;;;;;;;33.10;9.30;;;;;;;12.27;70.89;100543.95;107617;1253;109113;-61
2023/10/22 04:10:10;;;;;;;32.20;9.10;;;;;;;12.25;70.89;100549.16;107598;1255;107899;-61
2023/10/22 04:12:39;;;;;;;26.20;8.60;;;;;;;12.26;71.12;100544.75;107615;1252;97852;-61
2023/10/22 04:15:08;;;;;;;33.20;10.00;;;;;;;12.25;71.00;100556.91;107507;1251;97739;-63
2023/10/22 04:17:36;;;;;;;28.50;10.80;;;;;;;12.24;71.11;100558.39;107518;1251;110225;-62
2023/10/22 04:20:05;;;;;;;32.00;10.60;;;;;;;12.23;71.09;100556.69;107637;1251;108868;-61
2023/10/22 04:22:33;;;;;;;30.10;8.80;;;;;;;12.21;71.03;100559.60;107648;1251;106211;-62
2023/10/22 04:25:05;;;;;;;27.70;8.90;;;;;;;12.21;71.14;100552.05;107578;1252;97845;-61
2023/10/22 04:27:33;;;;;;;28.90;9.20;;;;;;;12.18;71.08;100549.23;107613;1254;97972;-61
2023/10/22 04:30:04;;;;;;;22.60;7.70;;;;;;;12.18;71.05;100543.77;107578;1253;111610;-61
2023/10/22 04:32:33;;;;;;;25.90;8.60;;;;;;;12.15;71.04;100548.82;107596;1251;108712;-61
2023/10/22 04:35:03;;;;;;;29.30;8.90;;;;;;;12.13;71.00;100557.15;107582;1255;108112;-62
2023/10/22 04:37:32;;;;;;;25.90;8.40;;;;;;;12.08;70.95;100564.63;107600;1255;97882;-62
2023/10/22 04:40:00;;;;;;;29.70;8.10;;;;;;;12.08;71.03;100558.41;107605;1251;99529;-61
2023/10/22 04:42:28;;;;;;;29.10;8.50;;;;;;;12.08;71.07;100559.26;107575;1252;111852;-63
2023/10/22 04:44:57;;;;;;;33.50;8.80;;;;;;;12.07;71.04;100554.67;107554;1251;109354;-64
2023/10/22 04:47:25;;;;;;;31.60;8.60;;;;;;;12.05;71.15;100556.98;107570;1251;108045;-62
2023/10/22 04:49:53;;;;;;;32.20;7.80;;;;;;;12.06;71.08;100554.78;107595;1251;97812;-63
2023/10/22 04:52:31;;;;;;;32.40;9.10;;;;;;;12.05;71.07;100554.70;107621;1255;98015;-62
2023/10/22 04:55:00;;;;;;;33.20;8.70;;;;;;;12.02;71.14;100561.59;107559;1251;111921;-64
2023/10/22 04:57:29;;;;;;;27.00;10.20;;;;;;;12.01;70.97;100556.89;107552;1253;109997;-63
2023/10/22 04:59:57;;;;;;;30.10;8.80;;;;;;;12.01;71.30;100573.17;107627;1251;107360;-62
2023/10/22 05:02:26;;;;;;;30.20;8.60;;;;;;;12.02;71.25;100576.58;107577;1251;97811;-62
2023/10/22 05:04:54;;;;;;;35.30;8.80;;;;;;;12.06;71.38;100585.89;107488;1253;97495;-62
2023/10/22 05:07:22;;;;;;;31.50;9.80;;;;;;;12.10;71.30;100582.13;107600;1252;112812;-61
2023/10/22 05:09:51;;;;;;;38.30;9.00;;;;;;;12.16;71.46;100575.36;107600;1251;108328;-62
2023/10/22 05:12:19;;;;;;;29.90;9.30;;;;;;;12.21;71.51;100583.85;107544;1251;107880;-62
2023/10/22 05:14:47;;;;;;;32.90;7.70;;;;;;;12.26;71.40;100596.31;107607;1251;97708;-64
2023/10/22 05:17:15;;;;;;;30.50;8.60;;;;;;;12.32;71.42;100597.03;107612;1251;98571;-62
2023/10/22 05:19:43;;;;;;;32.70;8.30;;;;;;;12.38;71.37;100592.84;107639;1251;112790;-61
2023/10/22 05:22:12;;;;;;;39.70;9.20;;;;;;;12.44;71.34;100598.88;107571;1252;110684;-62
2023/10/22 05:24:40;;;;;;;22.60;8.60;;;;;;;12.50;71.34;100610.00;107582;1250;108362;-63
2023/10/22 05:27:08;;;;;;;29.00;8.30;;;;;;;12.54;71.17;100608.16;107550;1251;97816;-63
2023/10/22 05:29:37;;;;;;;26.40;7.70;;;;;;;12.59;71.28;100600.81;107610;1251;97823;-63
2023/10/22 05:32:07;;;;;;;32.90;7.60;;;;;;;12.65;71.24;100598.79;107572;1253;111260;-63
2023/10/22 05:34:36;;;;;;;41.10;8.60;;;;;;;12.71;71.27;100606.08;107607;1251;108944;-63
2023/10/22 05:37:04;;;;;;;29.10;8.50;;;;;;;12.80;71.28;100609.99;107599;1253;106443;-62
2023/10/22 05:39:33;;;;;;;39.40;8.20;;;;;;;12.93;71.23;100615.27;107615;1251;98002;-62
2023/10/22 05:42:01;;;;;;;36.70;10.40;;;;;;;13.07;71.21;100619.81;107536;1252;97841;-62
2023/10/22 05:44:29;;;;;;;44.50;9.40;;;;;;;13.20;71.08;100606.17;107632;1251;111155;-62
2023/10/22 05:46:57;;;;;;;29.50;7.90;;;;;;;13.37;70.84;100601.09;107550;1251;109483;-62
2023/10/22 05:49:25;;;;;;;33.90;8.60;;;;;;;13.53;70.94;100610.58;107617;1253;107011;-63
2023/10/22 05:51:54;;;;;;;34.40;8.10;;;;;;;13.80;70.86;100608.55;107630;1251;97931;-61
2023/10/22 05:54:23;;;;;;;39.90;8.10;;;;;;;14.00;70.45;100608.28;107596;1252;97716;-63
2023/10/22 05:56:51;;;;;;;31.90;9.90;;;;;;;14.12;70.10;100615.80;107628;1251;111267;-62
2023/10/22 05:59:20;;;;;;;37.90;11.50;;;;;;;14.21;69.90;100613.40;107596;1253;109387;-63
2023/10/22 06:01:48;;;;;;;37.20;9.40;;;;;;;14.33;69.59;100609.41;107558;1252;107920;-61
2023/10/22 06:04:16;;;;;;;31.20;8.20;;;;;;;14.44;69.17;100601.98;107641;1253;97838;-62
2023/10/22 06:06:45;;;;;;;43.50;11.10;;;;;;;14.55;68.80;100599.48;107653;1255;97867;-61
2023/10/22 06:09:14;;;;;;;34.60;8.80;;;;;;;14.68;68.69;100592.73;107642;1251;111703;-62
2023/10/22 06:11:42;;;;;;;35.50;9.00;;;;;;;14.83;68.50;100593.65;107611;1251;109982;-63
2023/10/22 06:14:10;;;;;;;38.40;8.50;;;;;;;14.97;68.25;100594.06;107587;1251;107343;-63
2023/10/22 06:16:39;;;;;;;35.80;9.60;;;;;;;15.13;68.06;100595.02;107590;1251;97833;-62
2023/10/22 06:19:07;;;;;;;38.10;9.70;;;;;;;15.27;67.52;100592.20;107646;1253;98352;-62
2023/10/22 06:21:36;;;;;;;39.00;8.90;;;;;;;15.41;67.04;100591.44;107660;1251;111542;-62
2023/10/22 06:24:06;;;;;;;28.70;7.90;;;;;;;15.53;66.63;100587.52;107599;1252;108975;-61
2023/10/22 06:26:34;;;;;;;36.20;7.60;;;;;;;15.67;66.19;100587.02;107629;1251;108902;-62
2023/10/22 06:29:02;;;;;;;30.30;8.50;;;;;;;15.82;65.96;100586.67;107580;1253;97840;-63
2023/10/22 06:31:31;;;;;;;51.70;9.00;;;;;;;15.97;65.58;100583.70;107569;1255;99018;-61
2023/10/22 06:34:02;;;;;;;32.70;8.00;;;;;;;16.10;64.73;100574.38;107604;1252;112177;-62
2023/10/22 06:36:30;;;;;;;31.60;8.40;;;;;;;16.24;64.72;100582.00;107522;1253;109506;-61
2023/10/22 06:38:59;;;;;;;36.70;8.00;;;;;;;16.40;64.42;100585.98;107614;1254;107126;-63
2023/10/22 06:41:27;;;;;;;29.10;8.80;;;;;;;16.55;64.29;100581.33;107595;1251;97922;-65
2023/10/22 06:43:55;;;;;;;36.60;7.30;;;;;;;16.70;64.02;100575.39;107583;1252;97994;-61
2023/10/22 06:46:24;;;;;;;25.50;8.90;;;;;;;16.86;63.72;100572.06;107632;1253;110928;-62
2023/10/22 06:48:52;;;;;;;42.10;8.00;;;;;;;17.04;63.46;100571.69;107642;1251;108426;-61
2023/10/22 06:51:22;;;;;;;32.10;7.40;;;;;;;17.21;63.14;100575.60;107578;1251;108739;-62
2023/10/22 06:53:50;;;;;;;37.90;9.80;;;;;;;17.41;62.73;100575.61;107570;1251;95832;-62
2023/10/22 06:56:18;;;;;;;26.50;8.40;;;;;;;17.58;62.17;100572.89;107609;1252;97870;-62
2023/10/22 06:58:47;;;;;;;32.60;7.90;;;;;;;17.77;60.96;100573.69;107617;1251;111466;-63
2023/10/22 07:01:15;;;;;;;35.60;8.50;;;;;;;17.94;59.88;100578.20;107588;1253;108580;-61
2023/10/22 07:03:45;;;;;;;40.70;9.30;;;;;;;18.14;59.87;100578.74;107591;1253;107889;-63
2023/10/22 07:06:15;;;;;;;30.30;7.20;;;;;;;18.33;59.18;100579.77;107668;1251;97727;-63
2023/10/22 07:08:45;;;;;;;23.20;7.00;;;;;;;18.51;58.02;100579.88;107614;1251;97744;-63
2023/10/22 07:11:14;;;;;;;27.40;6.80;;;;;;;18.68;57.54;100579.19;107594;1254;110621;-62
2023/10/22 07:13:42;;;;;;;32.20;8.30;;;;;;;18.86;57.43;100579.35;107622;1251;110346;-63
2023/10/22 07:16:11;;;;;;;35.00;7.80;;;;;;;19.03;56.00;100574.23;107595;1253;108326;-63
2023/10/22 07:18:39;;;;;;;37.10;8.80;;;;;;;19.20;55.59;100569.16;107584;1252;97862;-63
2023/10/22 07:21:08;;;;;;;34.50;9.40;;;;;;;19.40;55.29;100566.95;107552;1254;97912;-63
2023/10/22 07:23:36;;;;;;;45.70;9.40;;;;;;;19.62;55.47;100563.65;107582;1253;113032;-62
2023/10/22 07:26:05;;;;;;;36.70;8.00;;;;;;;19.83;55.48;100557.09;107652;1251;109769;-62
2023/10/22 07:28:33;;;;;;;37.90;8.80;;;;;;;20.04;54.69;100552.75;107583;1254;108097;-63
2023/10/22 07:31:01;;;;;;;21.50;7.30;;;;;;;20.24;53.18;100546.05;107486;1256;97810;-62
2023/10/22 07:33:30;;;;;;;28.80;7.40;;;;;;;20.45;53.12;100545.20;107652;1251;97951;-61
2023/10/22 07:36:07;;;;;;;34.00;7.00;;;;;;;20.68;53.09;100543.99;107553;1251;111014;-62
2023/10/22 07:38:38;;;;;;;45.20;8.80;;;;;;;20.91;52.43;100536.92;107610;1251;110071;-62
2023/10/22 07:41:16;;;;;;;25.20;6.60;;;;;;;21.11;52.17;100540.98;107539;1253;108602;-62
2023/10/22 07:43:44;;;;;;;33.00;7.50;;;;;;;21.28;51.69;100531.34;107585;1251;97722;-62
2023/10/22 07:46:15;;;;;;;28.60;6.60;;;;;;;21.44;51.11;100527.34;107619;1251;97833;-63
2023/10/22 07:48:45;;;;;;;42.90;6.80;;;;;;;21.56;50.65;100528.21;107599;1255;111829;-63
2023/10/22 07:51:19;;;;;;;18.10;7.20;;;;;;;21.68;48.99;100529.79;107614;1253;108889;-63
2023/10/22 07:53:47;;;;;;;29.30;6.50;;;;;;;21.76;49.14;100533.38;107615;1253;108651;-62
2023/10/22 07:56:20;;;;;;;27.90;6.90;;;;;;;21.88;49.10;100528.66;107540;1255;97832;-62
2023/10/22 07:58:48;;;;;;;42.70;8.50;;;;;;;22.02;48.68;100528.02;107606;1251;97961;-62
2023/10/22 08:01:19;;;;;;;25.90;7.70;;;;;;;22.17;48.60;100526.45;107558;1251;111121;-63
2023/10/22 08:03:49;;;;;;;21.00;5.70;;;;;;;22.34;48.93;100525.64;107614;1252;108894;-62
2023/10/22 08:06:18;;;;;;;26.90;7.50;;;;;;;22.53;48.79;100516.27;107549;1252;108565;-62
2023/10/22 08:08:46;;;;;;;21.30;6.70;;;;;;;22.73;48.58;100515.19;107645;1256;97852;-63
2023/10/22 08:11:15;;;;;;;24.00;6.60;;;;;;;22.91;48.49;100511.66;107603;1253;97852;-62
2023/10/22 08:13:43;;;;;;;25.70;7.10;;;;;;;23.08;48.48;100528.90;107629;1255;111307;-64
2023/10/22 08:16:12;;;;;;;38.90;7.70;;;;;;;23.22;48.59;100527.77;107600;1253;109782;-64
2023/10/22 08:18:42;;;;;;;30.10;6.80;;;;;;;23.35;47.97;100526.00;107615;1253;107502;-65
2023/10/22 08:21:11;;;;;;;34.20;7.50;;;;;;;23.51;46.81;100515.81;107575;1251;97836;-63
2023/10/22 08:23:39;;;;;;;28.30;7.10;;;;;;;23.71;46.64;100513.90;107603;1253;97726;-64
2023/10/22 08:26:08;;;;;;;19.50;6.70;;;;;;;23.89;45.65;100513.55;107529;1253;111803;-63
2023/10/22 08:28:37;;;;;;;30.30;7.10;;;;;;;24.04;45.05;100516.08;107618;1252;108853;-62
2023/10/22 08:31:06;;;;;;;31.50;7.90;;;;;;;24.20;44.17;100523.34;107606;1252;108108;-64
2023/10/22 08:33:34;;;;;;;30.30;7.50;;;;;;;24.42;44.47;100530.17;107549;1253;97812;-62
2023/10/22 08:36:07;;;;;;;36.90;7.00;;;;;;;24.60;44.14;100525.77;107525;1254;97698;-63
2023/10/22 08:38:36;;;;;;;22.90;6.30;;;;;;;24.70;42.82;100524.88;107593;1253;110833;-62
2023/10/22 08:41:14;;;;;;;33.90;6.50;;;;;;;24.72;41.88;100521.45;107627;1252;110354;-63
2023/10/22 08:43:45;;;;;;;21.40;6.00;;;;;;;24.73;41.19;100520.43;107643;1251;107617;-62
2023/10/22 08:46:13;;;;;;;19.70;6.20;;;;;;;24.69;41.70;100513.64;107493;1255;97899;-63
2023/10/22 08:48:41;;;;;;;37.90;7.20;;;;;;;24.74;41.73;100517.70;107569;1252;97712;-62
2023/10/22 08:51:10;;;;;;;29.80;6.50;;;;;;;24.89;42.27;100521.05;107617;1254;110878;-63
2023/10/22 08:53:39;;;;;;;35.00;6.50;;;;;;;25.10;42.29;100515.89;107575;1253;109348;-62
2023/10/22 08:56:09;;;;;;;31.80;7.40;;;;;;;25.33;42.07;100525.27;107504;1253;108835;-63
2023/10/22 08:58:37;;;;;;;33.50;6.60;;;;;;;25.63;41.79;100529.24;107553;1252;97846;-63
2023/10/22 09:01:05;;;;;;;24.60;5.50;;;;;;;25.74;41.16;100533.22;107598;1251;97726;-64
2023/10/22 09:03:33;;;;;;;27.20;6.20;;;;;;;26.04;41.03;100532.36;107647;1254;110928;-62
2023/10/22 09:06:05;;;;;;;28.00;6.10;;;;;;;26.69;40.29;100535.23;107598;1251;108808;-61
2023/10/22 09:08:45;;;;;;;26.80;5.70;;;;;;;27.07;39.65;100539.60;107509;1253;107389;-63
2023/10/22 09:11:16;;;;;;;25.30;5.30;;;;;;;27.40;39.21;100535.34;107553;1252;97820;-61
2023/10/22 09:13:45;;;;;;;21.30;5.70;;;;;;;27.86;39.16;100527.39;107640;1251;97838;-62
2023/10/22 09:16:39;;;;;;;23.40;5.20;;;;;;;28.20;38.52;100527.41;107640;1253;111359;-63
2023/10/22 09:19:07;;;;;;;23.00;5.00;;;;;;;28.37;37.44;100519.91;107564;1253;109804;-62
2023/10/22 09:21:43;;;;;;;30.60;4.70;;;;;;;28.34;36.51;100519.11;107615;1251;108167;-62
2023/10/22 09:24:12;;;;;;;29.60;5.50;;;;;;;28.30;36.58;100518.02;107596;1253;97842;-61
2023/10/22 09:26:47;;;;;;;23.90;5.50;;;;;;;28.22;35.96;100516.76;107638;1251;97746;-63
2023/10/22 09:29:16;;;;;;;21.20;5.90;;;;;;;28.15;35.83;100515.91;107590;1251;112264;-63
2023/10/22 09:31:59;;;;;;;36.40;6.00;;;;;;;28.09;35.58;100516.25;107538;1253;109722;-64
2023/10/22 09:34:31;;;;;;;35.80;5.10;;;;;;;28.05;34.82;100513.52;107568;1251;107835;-63
2023/10/22 09:37:00;;;;;;;39.80;6.00;;;;;;;28.00;34.70;100510.03;107583;1253;97858;-64
2023/10/22 09:39:39;;;;;;;22.80;4.90;;;;;;;27.94;34.73;100504.98;107597;1252;97884;-63
2023/10/22 09:42:09;;;;;;;36.00;4.80;;;;;;;27.80;34.31;100508.04;107588;1253;111767;-62
2023/10/22 09:44:44;;;;;;;28.40;5.00;;;;;;;27.70;34.49;100508.91;107624;1253;110088;-63
2023/10/22 09:47:23;;;;;;;26.40;5.40;;;;;;;27.62;34.62;100500.35;107585;1252;108267;-63
2023/10/22 09:50:02;;;;;;;22.90;5.20;;;;;;;27.51;34.52;100506.62;107595;1252;98292;-64
2023/10/22 09:52:35;;;;;;;28.40;5.50;;;;;;;27.52;35.11;100507.74;107656;1251;98473;-63
2023/10/22 09:55:06;;;;;;;31.10;6.00;;;;;;;27.65;35.31;100507.14;107625;1251;112233;-62
2023/10/22 09:57:36;;;;;;;27.70;5.00;;;;;;;27.83;34.98;100509.06;107519;1251;108579;-62
2023/10/22 10:00:10;;;;;;;33.00;5.50;;;;;;;28.06;34.10;100506.84;107606;1252;107246;-61
2023/10/22 10:02:39;;;;;;;;;;;;;;;28.43;33.60;100506.52;107574;1252;97813;-62
2023/10/22 10:05:10;;;;;;;21.00;4.50;;;;;;;28.85;32.05;100500.96;107591;1253;98464;-62
2023/10/22 10:07:39;;;;;;;27.50;4.00;;;;;;;29.04;28.25;100503.54;107640;1251;111418;-62
2023/10/22 10:10:09;;;;;;;22.80;3.90;;;;;;;29.46;28.02;100494.73;107637;1252;109964;-64
2023/10/22 10:12:40;;;;;;;18.30;3.40;;;;;;;29.72;27.69;100493.38;107182;1251;465311;-62
2023/10/22 10:15:33;;;;;;;19.90;3.60;;;;;;;29.89;26.43;100492.67;107561;1251;98006;-64
2023/10/22 10:18:02;;;;;;;22.90;4.50;;;;;;;29.86;26.88;100488.16;107669;1253;97873;-63
2023/10/22 10:20:31;;;;;;;18.60;3.90;;;;;;;29.86;26.44;100489.05;107547;1253;112670;-61
2023/10/22 10:23:08;;;;;;;17.80;3.60;;;;;;;29.73;27.13;100477.33;107490;1255;110290;-63
2023/10/22 10:25:42;;;;;;;16.80;3.60;;;;;;;29.85;27.21;100471.42;107511;1255;107093;-63
2023/10/22 10:28:13;;;;;;;18.70;3.90;;;;;;;30.19;26.69;100476.67;107543;1253;97858;-62
2023/10/22 10:30:41;;;;;;;13.30;3.50;;;;;;;30.31;26.18;100473.75;107380;1253;97910;-63
2023/10/22 10:33:12;;;;;;;24.00;3.30;;;;;;;30.19;26.00;100471.30;107607;1253;111746;-63
2023/10/22 10:35:48;;;;;;;26.90;4.80;;;;;;;29.99;25.70;100463.82;107526;1252;109310;-62
2023/10/22 10:38:19;;;;;;;20.40;4.50;;;;;;;29.82;26.11;100459.88;107542;1253;108031;-62
2023/10/22 10:40:55;;;;;;;22.70;4.70;;;;;;;29.62;26.08;100453.05;107518;1252;97843;-62
2023/10/22 10:44:02;;;;;;;14.30;3.80;;;;;;;29.42;26.44;100445.10;107607;1251;97708;-62
2023/10/22 10:46:32;;;;;;;25.30;5.20;;;;;;;29.20;26.91;100445.04;107607;1252;111698;-62
2023/10/22 10:49:00;;;;;;;13.10;3.50;;;;;;;29.03;26.64;100455.85;107547;1256;110264;-62
2023/10/22 10:51:29;;;;;;;19.00;4.30;;;;;;;28.89;26.87;100445.23;107564;1253;109837;-63
2023/10/22 10:54:01;;;;;;;21.40;4.20;;;;;;;28.81;27.02;100441.94;107581;1253;97833;-62
2023/10/22 10:56:49;;;;;;;27.60;4.40;;;;;;;28.79;27.70;100446.28;107574;1253;97724;-61
2023/10/22 10:59:30;;;;;;;18.10;3.90;;;;;;;28.86;27.03;100450.83;107556;1253;111208;-62
2023/10/22 11:02:11;;;;;;;16.10;3.90;;;;;;;28.90;27.13;100452.07;107631;1254;109741;-62
2023/10/22 11:04:46;;;;;;;15.80;4.00;;;;;;;29.00;26.72;100451.46;107616;1253;107727;-62
2023/10/22 11:07:17;;;;;;;19.90;4.20;;;;;;;29.18;26.74;100452.89;107579;1253;97960;-62
2023/10/22 11:09:56;;;;;;;14.80;4.00;;;;;;;29.43;27.15;100450.71;107599;1253;97856;-62
2023/10/22 11:12:25;;;;;;;21.70;4.80;;;;;;;29.69;27.02;100449.69;107671;1252;111331;-62
2023/10/22 11:14:57;;;;;;;17.00;4.50;;;;;;;29.91;27.15;100448.65;107553;1251;109232;-63